Ann Arbor, Michigan
Current Conditions -  °F | °C
As of 8:53 AM on Saturday 25 Oct 2014 (Local Time) from KARB Reporting Station
Haze Haze  
Wind Chill: 47°   Ceiling: Unl
Heat Index: 49°   Visibility: 2.5mi
Dew Point: 46°   Wind: 6mph
Humidity: 90%   Direction: 270°W
Pressure: 29.85"   Gusts: NA
Location:  42.28°N, 83.75°W
Report Text: KARB 251253Z 27005KT 2 1/2SM BR CLR 09/08 A2985 RMK AO2 SLP110 T00940078
Loading
Personal Weather Stations






























Interactive Weather Map New forecast layout! Learn more

10-Day Weather Forecast

Advertisements
Track Severe Weather on mobile